sensor_id;sensor_type;location;lat;lon;timestamp;P1;durP1;ratioP1;P2;durP2;ratioP2
7487;SDS011;3785;52.260;4.728;2023-02-28T00:01:07;3.35;;;1.60;;
7487;SDS011;3785;52.260;4.728;2023-02-28T00:04:29;2.67;;;1.25;;
7487;SDS011;3785;52.260;4.728;2023-02-28T00:07:51;3.03;;;1.75;;
7487;SDS011;3785;52.260;4.728;2023-02-28T00:11:13;2.05;;;1.42;;
7487;SDS011;3785;52.260;4.728;2023-02-28T00:14:34;2.90;;;1.65;;
7487;SDS011;3785;52.260;4.728;2023-02-28T00:17:56;3.78;;;1.70;;
7487;SDS011;3785;52.260;4.728;2023-02-28T00:21:17;2.78;;;1.88;;
7487;SDS011;3785;52.260;4.728;2023-02-28T00:24:38;4.57;;;2.15;;
7487;SDS011;3785;52.260;4.728;2023-02-28T00:27:59;3.30;;;1.77;;
7487;SDS011;3785;52.260;4.728;2023-02-28T00:31:20;3.83;;;1.70;;
7487;SDS011;3785;52.260;4.728;2023-02-28T00:34:42;1.88;;;1.40;;
7487;SDS011;3785;52.260;4.728;2023-02-28T00:38:03;3.50;;;2.00;;
7487;SDS011;3785;52.260;4.728;2023-02-28T00:41:25;4.07;;;1.45;;
7487;SDS011;3785;52.260;4.728;2023-02-28T00:44:46;2.63;;;1.48;;
7487;SDS011;3785;52.260;4.728;2023-02-28T00:48:06;2.95;;;1.77;;
7487;SDS011;3785;52.260;4.728;2023-02-28T00:51:27;6.22;;;1.95;;
7487;SDS011;3785;52.260;4.728;2023-02-28T00:54:48;3.90;;;1.92;;
7487;SDS011;3785;52.260;4.728;2023-02-28T00:58:09;3.67;;;1.98;;
7487;SDS011;3785;52.260;4.728;2023-02-28T01:01:30;3.60;;;1.70;;
7487;SDS011;3785;52.260;4.728;2023-02-28T01:04:50;3.30;;;1.95;;
7487;SDS011;3785;52.260;4.728;2023-02-28T01:08:12;2.22;;;1.40;;
7487;SDS011;3785;52.260;4.728;2023-02-28T01:11:34;4.28;;;1.70;;
7487;SDS011;3785;52.260;4.728;2023-02-28T01:14:55;4.45;;;1.85;;
7487;SDS011;3785;52.260;4.728;2023-02-28T01:18:15;2.47;;;1.40;;
7487;SDS011;3785;52.260;4.728;2023-02-28T01:21:36;4.20;;;1.48;;
7487;SDS011;3785;52.260;4.728;2023-02-28T01:24:56;3.30;;;1.45;;
7487;SDS011;3785;52.260;4.728;2023-02-28T01:28:17;2.95;;;1.95;;
7487;SDS011;3785;52.260;4.728;2023-02-28T01:31:37;2.60;;;1.27;;
7487;SDS011;3785;52.260;4.728;2023-02-28T01:34:58;3.15;;;1.83;;
7487;SDS011;3785;52.260;4.728;2023-02-28T01:38:19;5.85;;;2.10;;
7487;SDS011;3785;52.260;4.728;2023-02-28T01:41:39;4.75;;;1.70;;
7487;SDS011;3785;52.260;4.728;2023-02-28T01:48:49;8.88;;;2.10;;
7487;SDS011;3785;52.260;4.728;2023-02-28T01:52:16;3.83;;;2.30;;
7487;SDS011;3785;52.260;4.728;2023-02-28T01:55:38;3.90;;;1.80;;
7487;SDS011;3785;52.260;4.728;2023-02-28T01:59:00;4.47;;;1.70;;
7487;SDS011;3785;52.260;4.728;2023-02-28T02:02:21;4.05;;;1.92;;
7487;SDS011;3785;52.260;4.728;2023-02-28T02:05:42;3.97;;;1.92;;
7487;SDS011;3785;52.260;4.728;2023-02-28T02:09:07;3.58;;;1.67;;
7487;SDS011;3785;52.260;4.728;2023-02-28T02:16:44;4.72;;;2.00;;
7487;SDS011;3785;52.260;4.728;2023-02-28T02:24:30;2.80;;;1.95;;
7487;SDS011;3785;52.260;4.728;2023-02-28T02:31:33;4.80;;;1.88;;
7487;SDS011;3785;52.260;4.728;2023-02-28T02:35:14;3.33;;;1.83;;
7487;SDS011;3785;52.260;4.728;2023-02-28T02:38:45;6.00;;;1.95;;
7487;SDS011;3785;52.260;4.728;2023-02-28T02:42:29;3.88;;;1.85;;
7487;SDS011;3785;52.260;4.728;2023-02-28T02:45:59;5.00;;;1.92;;
7487;SDS011;3785;52.260;4.728;2023-02-28T02:49:26;5.05;;;2.08;;
7487;SDS011;3785;52.260;4.728;2023-02-28T02:52:53;6.40;;;2.60;;
7487;SDS011;3785;52.260;4.728;2023-02-28T02:56:17;3.88;;;2.15;;
7487;SDS011;3785;52.260;4.728;2023-02-28T02:59:40;5.22;;;2.13;;
7487;SDS011;3785;52.260;4.728;2023-02-28T03:03:01;4.28;;;2.17;;
7487;SDS011;3785;52.260;4.728;2023-02-28T03:06:23;3.25;;;2.00;;
7487;SDS011;3785;52.260;4.728;2023-02-28T03:09:54;3.80;;;2.05;;
7487;SDS011;3785;52.260;4.728;2023-02-28T03:16:49;4.65;;;2.03;;
7487;SDS011;3785;52.260;4.728;2023-02-28T03:24:10;4.57;;;2.30;;
7487;SDS011;3785;52.260;4.728;2023-02-28T03:27:38;7.32;;;2.50;;
7487;SDS011;3785;52.260;4.728;2023-02-28T03:31:20;3.85;;;2.50;;
7487;SDS011;3785;52.260;4.728;2023-02-28T03:34:46;2.90;;;1.80;;
7487;SDS011;3785;52.260;4.728;2023-02-28T03:42:01;2.92;;;2.22;;
7487;SDS011;3785;52.260;4.728;2023-02-28T03:45:26;3.42;;;2.30;;
7487;SDS011;3785;52.260;4.728;2023-02-28T03:48:51;3.70;;;1.98;;
7487;SDS011;3785;52.260;4.728;2023-02-28T03:52:17;4.95;;;2.40;;
7487;SDS011;3785;52.260;4.728;2023-02-28T03:55:45;4.93;;;2.33;;
7487;SDS011;3785;52.260;4.728;2023-02-28T03:59:19;4.32;;;1.80;;
7487;SDS011;3785;52.260;4.728;2023-02-28T04:02:43;5.25;;;2.10;;
7487;SDS011;3785;52.260;4.728;2023-02-28T04:06:04;3.60;;;1.80;;
7487;SDS011;3785;52.260;4.728;2023-02-28T04:09:27;5.57;;;2.15;;
7487;SDS011;3785;52.260;4.728;2023-02-28T04:12:48;3.50;;;2.28;;
7487;SDS011;3785;52.260;4.728;2023-02-28T04:16:08;2.95;;;1.95;;
7487;SDS011;3785;52.260;4.728;2023-02-28T04:19:32;3.05;;;2.20;;
7487;SDS011;3785;52.260;4.728;2023-02-28T04:22:53;4.82;;;2.10;;
7487;SDS011;3785;52.260;4.728;2023-02-28T04:26:13;2.80;;;1.98;;
7487;SDS011;3785;52.260;4.728;2023-02-28T04:29:34;3.65;;;1.73;;
7487;SDS011;3785;52.260;4.728;2023-02-28T04:32:54;3.47;;;1.90;;
7487;SDS011;3785;52.260;4.728;2023-02-28T04:36:15;2.83;;;1.80;;
7487;SDS011;3785;52.260;4.728;2023-02-28T04:39:37;3.03;;;1.55;;
7487;SDS011;3785;52.260;4.728;2023-02-28T04:42:58;4.68;;;1.83;;
7487;SDS011;3785;52.260;4.728;2023-02-28T04:46:19;4.47;;;2.00;;
7487;SDS011;3785;52.260;4.728;2023-02-28T04:49:40;5.85;;;1.85;;
7487;SDS011;3785;52.260;4.728;2023-02-28T04:53:01;3.97;;;2.10;;
7487;SDS011;3785;52.260;4.728;2023-02-28T04:56:22;6.43;;;2.22;;
7487;SDS011;3785;52.260;4.728;2023-02-28T04:59:42;2.70;;;1.65;;
7487;SDS011;3785;52.260;4.728;2023-02-28T05:03:04;3.95;;;2.50;;
7487;SDS011;3785;52.260;4.728;2023-02-28T05:06:25;3.45;;;2.05;;
7487;SDS011;3785;52.260;4.728;2023-02-28T05:09:46;3.63;;;2.30;;
7487;SDS011;3785;52.260;4.728;2023-02-28T05:13:08;2.85;;;1.90;;
7487;SDS011;3785;52.260;4.728;2023-02-28T05:16:31;3.60;;;1.98;;
7487;SDS011;3785;52.260;4.728;2023-02-28T05:19:52;3.45;;;2.10;;
7487;SDS011;3785;52.260;4.728;2023-02-28T05:23:13;4.28;;;2.45;;
7487;SDS011;3785;52.260;4.728;2023-02-28T05:26:34;5.15;;;2.58;;
7487;SDS011;3785;52.260;4.728;2023-02-28T05:29:59;3.10;;;1.88;;
7487;SDS011;3785;52.260;4.728;2023-02-28T05:33:22;3.90;;;2.30;;
7487;SDS011;3785;52.260;4.728;2023-02-28T05:36:43;4.97;;;2.70;;
7487;SDS011;3785;52.260;4.728;2023-02-28T05:40:04;5.78;;;2.67;;
7487;SDS011;3785;52.260;4.728;2023-02-28T05:43:26;4.97;;;2.47;;
7487;SDS011;3785;52.260;4.728;2023-02-28T05:46:47;3.78;;;2.40;;
7487;SDS011;3785;52.260;4.728;2023-02-28T05:50:08;4.57;;;2.75;;
7487;SDS011;3785;52.260;4.728;2023-02-28T05:53:30;6.78;;;2.88;;
7487;SDS011;3785;52.260;4.728;2023-02-28T05:56:51;5.45;;;3.30;;
7487;SDS011;3785;52.260;4.728;2023-02-28T06:00:12;4.47;;;2.90;;
7487;SDS011;3785;52.260;4.728;2023-02-28T06:03:35;4.68;;;2.88;;
7487;SDS011;3785;52.260;4.728;2023-02-28T06:06:56;4.68;;;2.80;;
7487;SDS011;3785;52.260;4.728;2023-02-28T06:10:17;8.57;;;3.38;;
7487;SDS011;3785;52.260;4.728;2023-02-28T06:13:38;6.00;;;3.00;;
7487;SDS011;3785;52.260;4.728;2023-02-28T06:16:59;4.43;;;3.10;;
7487;SDS011;3785;52.260;4.728;2023-02-28T06:20:19;5.78;;;2.92;;
7487;SDS011;3785;52.260;4.728;2023-02-28T06:23:40;6.43;;;3.35;;
7487;SDS011;3785;52.260;4.728;2023-02-28T06:27:01;5.40;;;3.45;;
7487;SDS011;3785;52.260;4.728;2023-02-28T06:30:24;5.32;;;2.83;;
7487;SDS011;3785;52.260;4.728;2023-02-28T06:33:46;4.93;;;3.03;;
7487;SDS011;3785;52.260;4.728;2023-02-28T06:37:07;6.97;;;3.38;;
7487;SDS011;3785;52.260;4.728;2023-02-28T06:40:28;6.57;;;3.75;;
7487;SDS011;3785;52.260;4.728;2023-02-28T06:43:51;5.45;;;3.72;;
7487;SDS011;3785;52.260;4.728;2023-02-28T06:47:12;5.57;;;3.15;;
7487;SDS011;3785;52.260;4.728;2023-02-28T06:50:33;4.63;;;2.88;;
7487;SDS011;3785;52.260;4.728;2023-02-28T06:53:54;4.85;;;2.78;;
7487;SDS011;3785;52.260;4.728;2023-02-28T06:57:14;4.82;;;2.90;;
7487;SDS011;3785;52.260;4.728;2023-02-28T07:00:35;3.88;;;3.10;;
7487;SDS011;3785;52.260;4.728;2023-02-28T07:03:55;6.35;;;3.60;;
7487;SDS011;3785;52.260;4.728;2023-02-28T07:07:16;5.53;;;2.85;;
7487;SDS011;3785;52.260;4.728;2023-02-28T07:10:37;3.80;;;2.50;;
7487;SDS011;3785;52.260;4.728;2023-02-28T07:13:58;4.30;;;2.13;;
7487;SDS011;3785;52.260;4.728;2023-02-28T07:17:18;3.00;;;1.98;;
7487;SDS011;3785;52.260;4.728;2023-02-28T07:20:39;3.05;;;1.80;;
7487;SDS011;3785;52.260;4.728;2023-02-28T07:23:59;2.58;;;1.92;;
7487;SDS011;3785;52.260;4.728;2023-02-28T07:27:20;3.88;;;1.67;;
7487;SDS011;3785;52.260;4.728;2023-02-28T07:30:46;2.72;;;1.88;;
7487;SDS011;3785;52.260;4.728;2023-02-28T07:34:08;2.85;;;1.77;;
7487;SDS011;3785;52.260;4.728;2023-02-28T07:37:29;3.23;;;1.80;;
7487;SDS011;3785;52.260;4.728;2023-02-28T07:40:51;4.00;;;2.05;;
7487;SDS011;3785;52.260;4.728;2023-02-28T07:44:11;3.38;;;2.22;;
7487;SDS011;3785;52.260;4.728;2023-02-28T07:47:32;3.25;;;2.10;;
7487;SDS011;3785;52.260;4.728;2023-02-28T07:50:56;3.55;;;2.10;;
7487;SDS011;3785;52.260;4.728;2023-02-28T07:54:17;2.95;;;2.03;;
7487;SDS011;3785;52.260;4.728;2023-02-28T07:57:38;3.23;;;1.93;;
7487;SDS011;3785;52.260;4.728;2023-02-28T08:01:09;2.70;;;1.90;;
7487;SDS011;3785;52.260;4.728;2023-02-28T08:04:33;2.83;;;1.93;;
7487;SDS011;3785;52.260;4.728;2023-02-28T08:07:54;2.87;;;1.90;;
7487;SDS011;3785;52.260;4.728;2023-02-28T08:11:15;3.40;;;2.42;;
7487;SDS011;3785;52.260;4.728;2023-02-28T08:14:36;3.90;;;2.30;;
7487;SDS011;3785;52.260;4.728;2023-02-28T08:17:57;3.43;;;2.53;;
7487;SDS011;3785;52.260;4.728;2023-02-28T08:21:18;4.30;;;2.90;;
7487;SDS011;3785;52.260;4.728;2023-02-28T08:24:40;3.47;;;2.50;;
7487;SDS011;3785;52.260;4.728;2023-02-28T08:28:02;3.40;;;2.33;;
7487;SDS011;3785;52.260;4.728;2023-02-28T08:31:23;3.53;;;2.47;;
7487;SDS011;3785;52.260;4.728;2023-02-28T08:34:43;4.60;;;2.60;;
7487;SDS011;3785;52.260;4.728;2023-02-28T08:38:04;4.47;;;2.80;;
7487;SDS011;3785;52.260;4.728;2023-02-28T08:41:25;3.45;;;2.17;;
7487;SDS011;3785;52.260;4.728;2023-02-28T08:44:45;4.97;;;3.33;;
7487;SDS011;3785;52.260;4.728;2023-02-28T08:48:06;4.13;;;2.50;;
7487;SDS011;3785;52.260;4.728;2023-02-28T08:51:27;3.75;;;2.63;;
7487;SDS011;3785;52.260;4.728;2023-02-28T08:54:48;6.13;;;3.00;;
7487;SDS011;3785;52.260;4.728;2023-02-28T08:58:09;4.72;;;2.78;;
7487;SDS011;3785;52.260;4.728;2023-02-28T09:01:29;5.13;;;2.75;;
7487;SDS011;3785;52.260;4.728;2023-02-28T09:04:51;3.35;;;2.40;;
7487;SDS011;3785;52.260;4.728;2023-02-28T09:08:11;4.05;;;3.00;;
7487;SDS011;3785;52.260;4.728;2023-02-28T09:11:32;3.78;;;2.67;;
7487;SDS011;3785;52.260;4.728;2023-02-28T09:14:54;4.57;;;3.03;;
7487;SDS011;3785;52.260;4.728;2023-02-28T09:18:16;4.30;;;2.38;;
7487;SDS011;3785;52.260;4.728;2023-02-28T09:21:36;4.07;;;2.88;;
7487;SDS011;3785;52.260;4.728;2023-02-28T09:24:57;5.28;;;2.90;;
7487;SDS011;3785;52.260;4.728;2023-02-28T09:28:18;4.95;;;2.58;;
7487;SDS011;3785;52.260;4.728;2023-02-28T09:31:38;4.63;;;2.95;;
7487;SDS011;3785;52.260;4.728;2023-02-28T09:35:00;4.18;;;2.70;;
7487;SDS011;3785;52.260;4.728;2023-02-28T09:38:20;5.15;;;2.85;;
7487;SDS011;3785;52.260;4.728;2023-02-28T09:41:42;4.32;;;2.80;;
7487;SDS011;3785;52.260;4.728;2023-02-28T09:45:15;3.95;;;2.72;;
7487;SDS011;3785;52.260;4.728;2023-02-28T09:48:41;4.63;;;2.58;;
7487;SDS011;3785;52.260;4.728;2023-02-28T09:52:38;4.82;;;2.50;;
7487;SDS011;3785;52.260;4.728;2023-02-28T09:55:57;4.50;;;2.50;;
7487;SDS011;3785;52.260;4.728;2023-02-28T09:59:29;4.63;;;2.28;;
7487;SDS011;3785;52.260;4.728;2023-02-28T10:06:28;3.22;;;1.92;;
7487;SDS011;3785;52.260;4.728;2023-02-28T10:09:52;2.38;;;1.83;;
7487;SDS011;3785;52.260;4.728;2023-02-28T10:16:48;3.88;;;2.08;;
7487;SDS011;3785;52.260;4.728;2023-02-28T10:20:17;3.95;;;2.25;;
7487;SDS011;3785;52.260;4.728;2023-02-28T10:23:40;2.70;;;1.83;;
7487;SDS011;3785;52.260;4.728;2023-02-28T10:27:09;3.95;;;1.92;;
7487;SDS011;3785;52.260;4.728;2023-02-28T10:30:45;3.45;;;1.77;;
7487;SDS011;3785;52.260;4.728;2023-02-28T10:34:12;2.90;;;1.52;;
7487;SDS011;3785;52.260;4.728;2023-02-28T10:37:33;2.95;;;2.10;;
7487;SDS011;3785;52.260;4.728;2023-02-28T10:41:14;2.72;;;1.75;;
7487;SDS011;3785;52.260;4.728;2023-02-28T10:44:48;2.47;;;1.55;;
7487;SDS011;3785;52.260;4.728;2023-02-28T10:51:40;3.15;;;2.10;;
7487;SDS011;3785;52.260;4.728;2023-02-28T10:58:55;2.67;;;2.10;;
7487;SDS011;3785;52.260;4.728;2023-02-28T11:02:30;3.53;;;2.40;;
7487;SDS011;3785;52.260;4.728;2023-02-28T11:05:52;5.30;;;1.92;;
7487;SDS011;3785;52.260;4.728;2023-02-28T11:09:19;3.03;;;2.05;;
7487;SDS011;3785;52.260;4.728;2023-02-28T11:12:45;2.55;;;1.80;;
7487;SDS011;3785;52.260;4.728;2023-02-28T11:16:06;2.30;;;1.60;;
7487;SDS011;3785;52.260;4.728;2023-02-28T11:19:38;3.33;;;1.70;;
7487;SDS011;3785;52.260;4.728;2023-02-28T11:23:03;3.42;;;1.73;;
7487;SDS011;3785;52.260;4.728;2023-02-28T11:26:39;3.10;;;1.83;;
7487;SDS011;3785;52.260;4.728;2023-02-28T11:30:04;2.00;;;1.60;;
7487;SDS011;3785;52.260;4.728;2023-02-28T11:33:55;2.45;;;1.40;;
7487;SDS011;3785;52.260;4.728;2023-02-28T11:37:17;2.78;;;1.55;;
7487;SDS011;3785;52.260;4.728;2023-02-28T11:44:28;2.13;;;1.35;;
7487;SDS011;3785;52.260;4.728;2023-02-28T11:48:10;2.38;;;1.30;;
7487;SDS011;3785;52.260;4.728;2023-02-28T11:55:32;2.70;;;1.30;;
7487;SDS011;3785;52.260;4.728;2023-02-28T12:02:29;2.15;;;1.40;;
7487;SDS011;3785;52.260;4.728;2023-02-28T12:09:47;1.90;;;1.30;;
7487;SDS011;3785;52.260;4.728;2023-02-28T12:17:12;1.67;;;1.15;;
7487;SDS011;3785;52.260;4.728;2023-02-28T12:24:05;1.92;;;1.42;;
7487;SDS011;3785;52.260;4.728;2023-02-28T12:27:48;2.33;;;1.30;;
7487;SDS011;3785;52.260;4.728;2023-02-28T12:34:39;2.00;;;1.17;;
7487;SDS011;3785;52.260;4.728;2023-02-28T12:38:10;2.53;;;1.30;;
7487;SDS011;3785;52.260;4.728;2023-02-28T12:41:45;2.42;;;1.52;;
7487;SDS011;3785;52.260;4.728;2023-02-28T12:48:43;1.60;;;1.27;;
7487;SDS011;3785;52.260;4.728;2023-02-28T12:52:11;1.95;;;1.30;;
7487;SDS011;3785;52.260;4.728;2023-02-28T12:55:45;2.13;;;1.27;;
7487;SDS011;3785;52.260;4.728;2023-02-28T13:10:04;1.83;;;1.05;;
7487;SDS011;3785;52.260;4.728;2023-02-28T13:13:28;1.45;;;1.20;;
7487;SDS011;3785;52.260;4.728;2023-02-28T13:16:52;2.03;;;1.30;;
7487;SDS011;3785;52.260;4.728;2023-02-28T13:20:29;1.92;;;1.20;;
7487;SDS011;3785;52.260;4.728;2023-02-28T13:24:03;1.88;;;1.40;;
7487;SDS011;3785;52.260;4.728;2023-02-28T13:27:40;1.90;;;1.27;;
7487;SDS011;3785;52.260;4.728;2023-02-28T13:31:05;1.33;;;1.15;;
7487;SDS011;3785;52.260;4.728;2023-02-28T13:34:26;2.17;;;1.30;;
7487;SDS011;3785;52.260;4.728;2023-02-28T13:37:47;2.33;;;1.30;;
7487;SDS011;3785;52.260;4.728;2023-02-28T13:48:22;2.63;;;1.50;;
7487;SDS011;3785;52.260;4.728;2023-02-28T13:51:49;3.00;;;1.27;;
7487;SDS011;3785;52.260;4.728;2023-02-28T13:58:39;2.17;;;1.33;;
7487;SDS011;3785;52.260;4.728;2023-02-28T14:06:15;2.78;;;1.30;;
7487;SDS011;3785;52.260;4.728;2023-02-28T14:09:49;1.90;;;1.25;;
7487;SDS011;3785;52.260;4.728;2023-02-28T14:13:37;2.28;;;1.30;;
7487;SDS011;3785;52.260;4.728;2023-02-28T14:17:12;1.40;;;0.80;;
7487;SDS011;3785;52.260;4.728;2023-02-28T14:20:34;2.03;;;1.10;;
7487;SDS011;3785;52.260;4.728;2023-02-28T14:24:00;1.67;;;1.13;;
7487;SDS011;3785;52.260;4.728;2023-02-28T14:28:01;1.40;;;1.10;;
7487;SDS011;3785;52.260;4.728;2023-02-28T14:38:44;2.10;;;1.00;;
7487;SDS011;3785;52.260;4.728;2023-02-28T14:42:37;2.22;;;1.20;;
7487;SDS011;3785;52.260;4.728;2023-02-28T14:46:01;1.70;;;1.00;;
7487;SDS011;3785;52.260;4.728;2023-02-28T14:49:28;1.35;;;1.00;;
7487;SDS011;3785;52.260;4.728;2023-02-28T14:52:51;1.42;;;1.08;;
7487;SDS011;3785;52.260;4.728;2023-02-28T14:56:34;2.30;;;1.15;;
7487;SDS011;3785;52.260;4.728;2023-02-28T15:00:06;1.73;;;1.02;;
7487;SDS011;3785;52.260;4.728;2023-02-28T15:03:36;1.70;;;1.20;;
7487;SDS011;3785;52.260;4.728;2023-02-28T15:07:12;2.25;;;1.10;;
7487;SDS011;3785;52.260;4.728;2023-02-28T15:10:33;2.63;;;0.90;;
7487;SDS011;3785;52.260;4.728;2023-02-28T15:13:55;1.60;;;1.25;;
7487;SDS011;3785;52.260;4.728;2023-02-28T15:17:19;1.60;;;1.00;;
7487;SDS011;3785;52.260;4.728;2023-02-28T15:20:43;2.42;;;1.50;;
7487;SDS011;3785;52.260;4.728;2023-02-28T15:24:05;1.40;;;0.90;;
7487;SDS011;3785;52.260;4.728;2023-02-28T15:27:28;1.90;;;1.10;;
7487;SDS011;3785;52.260;4.728;2023-02-28T15:30:53;1.73;;;1.20;;
7487;SDS011;3785;52.260;4.728;2023-02-28T15:34:37;1.38;;;0.93;;
7487;SDS011;3785;52.260;4.728;2023-02-28T15:41:41;1.58;;;1.02;;
7487;SDS011;3785;52.260;4.728;2023-02-28T15:45:02;3.08;;;1.00;;
7487;SDS011;3785;52.260;4.728;2023-02-28T15:48:24;1.80;;;1.20;;
7487;SDS011;3785;52.260;4.728;2023-02-28T15:51:55;1.50;;;1.10;;
7487;SDS011;3785;52.260;4.728;2023-02-28T15:55:19;2.88;;;1.35;;
7487;SDS011;3785;52.260;4.728;2023-02-28T15:58:44;2.95;;;1.55;;
7487;SDS011;3785;52.260;4.728;2023-02-28T16:02:21;1.63;;;1.00;;
7487;SDS011;3785;52.260;4.728;2023-02-28T16:06:08;1.33;;;0.90;;
7487;SDS011;3785;52.260;4.728;2023-02-28T16:09:47;2.03;;;1.20;;
7487;SDS011;3785;52.260;4.728;2023-02-28T16:13:08;1.80;;;1.13;;
7487;SDS011;3785;52.260;4.728;2023-02-28T16:16:32;1.75;;;1.10;;
7487;SDS011;3785;52.260;4.728;2023-02-28T16:19:53;2.67;;;1.50;;
7487;SDS011;3785;52.260;4.728;2023-02-28T16:23:14;1.77;;;1.13;;
7487;SDS011;3785;52.260;4.728;2023-02-28T16:26:35;2.70;;;1.30;;
7487;SDS011;3785;52.260;4.728;2023-02-28T16:29:59;1.65;;;1.10;;
7487;SDS011;3785;52.260;4.728;2023-02-28T16:33:20;1.60;;;1.20;;
7487;SDS011;3785;52.260;4.728;2023-02-28T16:36:41;2.13;;;1.20;;
7487;SDS011;3785;52.260;4.728;2023-02-28T16:40:01;3.30;;;1.20;;
7487;SDS011;3785;52.260;4.728;2023-02-28T16:43:23;1.90;;;1.30;;
7487;SDS011;3785;52.260;4.728;2023-02-28T16:46:45;3.95;;;1.45;;
7487;SDS011;3785;52.260;4.728;2023-02-28T16:50:19;1.55;;;1.00;;
7487;SDS011;3785;52.260;4.728;2023-02-28T16:53:41;3.38;;;1.30;;
7487;SDS011;3785;52.260;4.728;2023-02-28T16:57:03;2.13;;;1.02;;
7487;SDS011;3785;52.260;4.728;2023-02-28T17:00:25;1.92;;;1.25;;
7487;SDS011;3785;52.260;4.728;2023-02-28T17:03:48;2.13;;;1.10;;
7487;SDS011;3785;52.260;4.728;2023-02-28T17:07:11;1.40;;;1.00;;
7487;SDS011;3785;52.260;4.728;2023-02-28T17:10:32;3.13;;;1.40;;
7487;SDS011;3785;52.260;4.728;2023-02-28T17:13:53;2.03;;;1.40;;
7487;SDS011;3785;52.260;4.728;2023-02-28T17:17:18;2.53;;;1.38;;
7487;SDS011;3785;52.260;4.728;2023-02-28T17:20:40;2.15;;;1.17;;
7487;SDS011;3785;52.260;4.728;2023-02-28T17:24:02;2.58;;;1.55;;
7487;SDS011;3785;52.260;4.728;2023-02-28T17:27:23;2.78;;;1.60;;
7487;SDS011;3785;52.260;4.728;2023-02-28T17:30:43;1.85;;;1.40;;
7487;SDS011;3785;52.260;4.728;2023-02-28T17:34:07;2.83;;;1.30;;
7487;SDS011;3785;52.260;4.728;2023-02-28T17:37:27;2.17;;;1.23;;
7487;SDS011;3785;52.260;4.728;2023-02-28T17:40:48;1.73;;;1.27;;
7487;SDS011;3785;52.260;4.728;2023-02-28T17:44:09;2.55;;;1.63;;
7487;SDS011;3785;52.260;4.728;2023-02-28T17:47:29;2.53;;;1.30;;
7487;SDS011;3785;52.260;4.728;2023-02-28T17:50:50;2.47;;;1.60;;
7487;SDS011;3785;52.260;4.728;2023-02-28T17:54:11;3.60;;;1.70;;
7487;SDS011;3785;52.260;4.728;2023-02-28T17:57:31;7.18;;;1.95;;
7487;SDS011;3785;52.260;4.728;2023-02-28T18:00:52;2.47;;;1.73;;
7487;SDS011;3785;52.260;4.728;2023-02-28T18:04:14;2.75;;;1.92;;
7487;SDS011;3785;52.260;4.728;2023-02-28T18:07:38;2.63;;;1.55;;
7487;SDS011;3785;52.260;4.728;2023-02-28T18:10:59;4.72;;;1.52;;
7487;SDS011;3785;52.260;4.728;2023-02-28T18:14:20;2.22;;;1.60;;
7487;SDS011;3785;52.260;4.728;2023-02-28T18:17:43;4.70;;;1.92;;
7487;SDS011;3785;52.260;4.728;2023-02-28T18:21:04;3.43;;;2.20;;
7487;SDS011;3785;52.260;4.728;2023-02-28T18:24:26;3.00;;;1.90;;
7487;SDS011;3785;52.260;4.728;2023-02-28T18:27:46;4.30;;;2.17;;
7487;SDS011;3785;52.260;4.728;2023-02-28T18:31:14;2.90;;;1.93;;
7487;SDS011;3785;52.260;4.728;2023-02-28T18:34:36;3.00;;;2.07;;
7487;SDS011;3785;52.260;4.728;2023-02-28T18:37:56;5.00;;;2.30;;
7487;SDS011;3785;52.260;4.728;2023-02-28T18:41:17;2.77;;;2.00;;
7487;SDS011;3785;52.260;4.728;2023-02-28T18:44:42;4.40;;;2.20;;
7487;SDS011;3785;52.260;4.728;2023-02-28T18:48:03;4.67;;;2.70;;
7487;SDS011;3785;52.260;4.728;2023-02-28T18:51:24;7.60;;;3.70;;
7487;SDS011;3785;52.260;4.728;2023-02-28T18:54:45;4.00;;;3.17;;
7487;SDS011;3785;52.260;4.728;2023-02-28T18:58:06;5.10;;;3.70;;
7487;SDS011;3785;52.260;4.728;2023-02-28T19:01:27;5.27;;;3.30;;
7487;SDS011;3785;52.260;4.728;2023-02-28T19:04:52;5.53;;;3.37;;
7487;SDS011;3785;52.260;4.728;2023-02-28T19:08:13;5.47;;;3.57;;
7487;SDS011;3785;52.260;4.728;2023-02-28T19:11:34;5.60;;;3.57;;
7487;SDS011;3785;52.260;4.728;2023-02-28T19:14:55;7.27;;;4.00;;
7487;SDS011;3785;52.260;4.728;2023-02-28T19:18:15;6.50;;;3.47;;
7487;SDS011;3785;52.260;4.728;2023-02-28T19:21:36;6.63;;;3.83;;
7487;SDS011;3785;52.260;4.728;2023-02-28T19:24:56;5.50;;;3.27;;
7487;SDS011;3785;52.260;4.728;2023-02-28T19:28:17;6.20;;;3.57;;
7487;SDS011;3785;52.260;4.728;2023-02-28T19:31:38;7.63;;;4.30;;
7487;SDS011;3785;52.260;4.728;2023-02-28T19:34:58;9.73;;;4.50;;
7487;SDS011;3785;52.260;4.728;2023-02-28T19:38:19;5.67;;;4.13;;
7487;SDS011;3785;52.260;4.728;2023-02-28T19:41:39;9.50;;;4.23;;
7487;SDS011;3785;52.260;4.728;2023-02-28T19:45:00;6.03;;;4.37;;
7487;SDS011;3785;52.260;4.728;2023-02-28T19:48:21;5.77;;;3.73;;
7487;SDS011;3785;52.260;4.728;2023-02-28T19:51:45;6.90;;;4.07;;
7487;SDS011;3785;52.260;4.728;2023-02-28T19:55:05;5.63;;;3.93;;
7487;SDS011;3785;52.260;4.728;2023-02-28T19:58:27;5.53;;;3.70;;
7487;SDS011;3785;52.260;4.728;2023-02-28T20:01:47;4.87;;;3.50;;
7487;SDS011;3785;52.260;4.728;2023-02-28T20:05:08;8.40;;;3.80;;
7487;SDS011;3785;52.260;4.728;2023-02-28T20:08:29;4.33;;;3.27;;
7487;SDS011;3785;52.260;4.728;2023-02-28T20:11:50;4.90;;;2.83;;
7487;SDS011;3785;52.260;4.728;2023-02-28T20:15:10;5.17;;;3.53;;
7487;SDS011;3785;52.260;4.728;2023-02-28T20:18:32;5.20;;;3.40;;
7487;SDS011;3785;52.260;4.728;2023-02-28T20:21:52;6.20;;;3.67;;
7487;SDS011;3785;52.260;4.728;2023-02-28T20:25:13;5.90;;;3.67;;
7487;SDS011;3785;52.260;4.728;2023-02-28T20:28:34;7.33;;;3.70;;
7487;SDS011;3785;52.260;4.728;2023-02-28T20:31:55;3.83;;;2.90;;
7487;SDS011;3785;52.260;4.728;2023-02-28T20:35:16;6.77;;;3.67;;
7487;SDS011;3785;52.260;4.728;2023-02-28T20:38:37;6.20;;;4.00;;
7487;SDS011;3785;52.260;4.728;2023-02-28T20:41:58;8.20;;;3.80;;
7487;SDS011;3785;52.260;4.728;2023-02-28T20:45:18;6.13;;;3.77;;
7487;SDS011;3785;52.260;4.728;2023-02-28T20:48:39;7.30;;;4.10;;
7487;SDS011;3785;52.260;4.728;2023-02-28T20:52:00;6.43;;;4.53;;
7487;SDS011;3785;52.260;4.728;2023-02-28T20:55:22;8.20;;;5.53;;
7487;SDS011;3785;52.260;4.728;2023-02-28T20:58:44;9.13;;;5.20;;
7487;SDS011;3785;52.260;4.728;2023-02-28T21:02:06;7.50;;;4.77;;
7487;SDS011;3785;52.260;4.728;2023-02-28T21:05:26;5.67;;;4.17;;
7487;SDS011;3785;52.260;4.728;2023-02-28T21:08:47;6.47;;;4.57;;
7487;SDS011;3785;52.260;4.728;2023-02-28T21:12:08;10.13;;;6.33;;
7487;SDS011;3785;52.260;4.728;2023-02-28T21:15:28;9.90;;;6.10;;
7487;SDS011;3785;52.260;4.728;2023-02-28T21:18:49;8.83;;;6.27;;
7487;SDS011;3785;52.260;4.728;2023-02-28T21:22:11;19.47;;;10.93;;
7487;SDS011;3785;52.260;4.728;2023-02-28T21:25:32;30.13;;;15.50;;
7487;SDS011;3785;52.260;4.728;2023-02-28T21:28:54;16.87;;;10.43;;
7487;SDS011;3785;52.260;4.728;2023-02-28T21:32:16;10.47;;;5.97;;
7487;SDS011;3785;52.260;4.728;2023-02-28T21:35:36;9.77;;;5.43;;
7487;SDS011;3785;52.260;4.728;2023-02-28T21:38:59;7.47;;;4.33;;
7487;SDS011;3785;52.260;4.728;2023-02-28T21:42:24;7.83;;;4.23;;
7487;SDS011;3785;52.260;4.728;2023-02-28T21:45:44;8.97;;;5.07;;
7487;SDS011;3785;52.260;4.728;2023-02-28T21:49:05;6.03;;;4.27;;
7487;SDS011;3785;52.260;4.728;2023-02-28T21:52:25;7.27;;;5.77;;
7487;SDS011;3785;52.260;4.728;2023-02-28T21:55:46;8.53;;;5.13;;
7487;SDS011;3785;52.260;4.728;2023-02-28T21:59:06;7.77;;;4.07;;
7487;SDS011;3785;52.260;4.728;2023-02-28T22:02:28;8.27;;;4.90;;
7487;SDS011;3785;52.260;4.728;2023-02-28T22:05:49;8.77;;;4.60;;
7487;SDS011;3785;52.260;4.728;2023-02-28T22:09:09;7.30;;;4.97;;
7487;SDS011;3785;52.260;4.728;2023-02-28T22:12:30;8.53;;;4.77;;
7487;SDS011;3785;52.260;4.728;2023-02-28T22:15:51;6.40;;;4.77;;
7487;SDS011;3785;52.260;4.728;2023-02-28T22:19:11;7.17;;;4.77;;
7487;SDS011;3785;52.260;4.728;2023-02-28T22:22:32;7.27;;;4.57;;
7487;SDS011;3785;52.260;4.728;2023-02-28T22:25:53;7.07;;;4.37;;
7487;SDS011;3785;52.260;4.728;2023-02-28T22:29:14;8.83;;;4.83;;
7487;SDS011;3785;52.260;4.728;2023-02-28T22:32:34;7.17;;;4.60;;
7487;SDS011;3785;52.260;4.728;2023-02-28T22:35:55;11.07;;;6.07;;
7487;SDS011;3785;52.260;4.728;2023-02-28T22:39:24;6.67;;;4.57;;
7487;SDS011;3785;52.260;4.728;2023-02-28T22:42:45;7.53;;;4.70;;
7487;SDS011;3785;52.260;4.728;2023-02-28T22:46:06;7.53;;;4.63;;
7487;SDS011;3785;52.260;4.728;2023-02-28T22:49:28;9.30;;;4.70;;
7487;SDS011;3785;52.260;4.728;2023-02-28T22:52:48;7.00;;;4.97;;